createdAt,value
2023-05-13T00:02:20.137Z,8.00
2023-05-13T00:04:47.271Z,8.10
2023-05-13T00:07:14.323Z,8.10
2023-05-13T00:09:41.526Z,8.10
2023-05-13T00:12:08.626Z,8.10
2023-05-13T00:14:35.682Z,8.10
2023-05-13T00:17:04.898Z,8.10
2023-05-13T00:19:32.077Z,8.00
2023-05-13T00:21:59.172Z,7.90
2023-05-13T00:24:26.231Z,7.70
2023-05-13T00:26:53.488Z,7.60
2023-05-13T00:29:20.604Z,7.40
2023-05-13T00:31:47.651Z,7.30
2023-05-13T00:34:17.046Z,7.30
2023-05-13T00:36:45.681Z,7.20
2023-05-13T00:39:13.472Z,7.10
2023-05-13T00:41:48.509Z,7.10
2023-05-13T00:44:15.598Z,7.10
2023-05-13T00:46:42.869Z,7.10
2023-05-13T00:49:10.291Z,7.00
2023-05-13T00:51:37.406Z,7.00
2023-05-13T00:54:05.198Z,7.00
2023-05-13T00:56:32.231Z,6.90
2023-05-13T00:58:59.331Z,6.90
2023-05-13T01:01:29.129Z,6.80
2023-05-13T01:04:20.669Z,6.80
2023-05-13T01:07:29.192Z,6.80
2023-05-13T01:10:02.671Z,6.70
2023-05-13T01:12:36.870Z,6.70
2023-05-13T01:15:09.461Z,6.80
2023-05-13T01:17:44.637Z,6.90
2023-05-13T01:20:12.301Z,7.00
2023-05-13T01:22:39.344Z,7.10
2023-05-13T01:25:07.132Z,7.20
2023-05-13T01:27:35.026Z,7.30
2023-05-13T01:30:03.391Z,7.30
2023-05-13T01:32:33.650Z,7.20
2023-05-13T01:35:01.587Z,7.10
2023-05-13T01:37:30.616Z,7.10
2023-05-13T01:39:57.847Z,7.20
2023-05-13T01:42:25.712Z,7.30
2023-05-13T01:44:53.847Z,7.30
2023-05-13T01:47:21.615Z,7.30
2023-05-13T01:49:48.726Z,7.30
2023-05-13T01:52:15.817Z,7.30
2023-05-13T01:54:42.906Z,7.40
2023-05-13T01:57:13.454Z,7.30
2023-05-13T01:59:40.721Z,7.40
2023-05-13T02:02:07.962Z,7.40
2023-05-13T02:04:35.146Z,7.40
2023-05-13T02:07:02.202Z,7.50
2023-05-13T02:09:31.343Z,7.50
2023-05-13T02:11:58.982Z,7.60
2023-05-13T02:14:26.278Z,7.70
2023-05-13T02:16:53.470Z,7.70
2023-05-13T02:19:21.827Z,7.70
2023-05-13T02:21:48.972Z,7.80
2023-05-13T02:24:16.620Z,7.90
2023-05-13T02:26:45.196Z,7.90
2023-05-13T02:29:12.274Z,8.00
2023-05-13T02:31:39.635Z,8.00
2023-05-13T02:34:06.907Z,8.00
2023-05-13T02:36:33.872Z,8.00
2023-05-13T02:39:01.307Z,8.00
2023-05-13T02:41:28.802Z,8.00
2023-05-13T02:43:55.915Z,8.00
2023-05-13T02:46:23.384Z,8.00
2023-05-13T02:48:50.592Z,8.00
2023-05-13T02:51:17.623Z,8.00
2023-05-13T02:53:44.681Z,8.00
2023-05-13T02:56:12.096Z,8.00
2023-05-13T02:58:39.207Z,8.00
2023-05-13T03:01:36.356Z,7.90
2023-05-13T03:04:03.564Z,7.90
2023-05-13T03:06:31.811Z,7.90
2023-05-13T03:08:58.851Z,7.90
2023-05-13T03:11:26.949Z,7.90
2023-05-13T03:13:53.989Z,7.90
2023-05-13T03:16:21.936Z,7.90
2023-05-13T03:18:48.993Z,7.90
2023-05-13T03:21:16.921Z,7.90
2023-05-13T03:23:45.091Z,7.90
2023-05-13T03:26:12.127Z,7.90
2023-05-13T03:28:39.811Z,7.90
2023-05-13T03:31:06.926Z,7.90
2023-05-13T03:33:37.656Z,8.00
2023-05-13T03:36:06.204Z,8.00
2023-05-13T03:38:33.302Z,8.00
2023-05-13T03:41:00.446Z,8.00
2023-05-13T03:43:27.642Z,8.00
2023-05-13T03:45:59.354Z,8.10
2023-05-13T03:48:26.891Z,8.10
2023-05-13T03:50:56.060Z,8.10
2023-05-13T03:53:23.715Z,8.20
2023-05-13T03:55:50.910Z,8.10
2023-05-13T03:58:18.665Z,8.20
2023-05-13T04:00:48.434Z,8.20
2023-05-13T04:03:19.334Z,8.20
2023-05-13T04:05:47.124Z,8.10
2023-05-13T04:08:14.588Z,8.10
2023-05-13T04:10:43.303Z,8.10
2023-05-13T04:13:11.049Z,8.00
2023-05-13T04:15:38.009Z,8.00
2023-05-13T04:18:06.233Z,8.00
2023-05-13T04:20:35.017Z,8.00
2023-05-13T04:23:02.171Z,8.10
2023-05-13T04:25:29.830Z,8.10
2023-05-13T04:27:56.864Z,8.20
2023-05-13T04:30:34.944Z,8.30
2023-05-13T04:33:02.226Z,8.40
2023-05-13T04:35:30.350Z,8.50
2023-05-13T04:38:00.191Z,8.50
2023-05-13T04:40:27.224Z,8.50
2023-05-13T04:42:56.661Z,8.50
2023-05-13T04:45:28.582Z,8.60
2023-05-13T04:47:58.372Z,8.60
2023-05-13T04:50:26.140Z,8.70
2023-05-13T04:52:56.592Z,8.70
2023-05-13T04:55:26.750Z,8.80
2023-05-13T04:57:55.374Z,8.80
2023-05-13T05:00:22.638Z,8.90
2023-05-13T05:02:51.417Z,8.90
2023-05-13T05:05:18.797Z,9.00
2023-05-13T05:07:46.487Z,9.00
2023-05-13T05:10:15.585Z,8.90
2023-05-13T05:12:47.790Z,8.90
2023-05-13T05:15:17.681Z,8.90
2023-05-13T05:17:48.259Z,9.00
2023-05-13T05:20:15.424Z,9.00
2023-05-13T05:22:43.067Z,8.90
2023-05-13T05:25:11.975Z,8.90
2023-05-13T05:27:39.447Z,8.90
2023-05-13T05:30:07.589Z,8.90
2023-05-13T05:32:36.107Z,8.90
2023-05-13T05:35:04.964Z,8.90
2023-05-13T05:37:33.335Z,8.90
2023-05-13T05:40:00.794Z,9.00
2023-05-13T05:42:28.163Z,9.00
2023-05-13T05:44:55.619Z,9.00
2023-05-13T05:47:22.726Z,9.00
2023-05-13T05:49:50.241Z,9.00
2023-05-13T05:52:18.958Z,9.00
2023-05-13T05:54:46.214Z,9.00
2023-05-13T05:57:13.366Z,9.10
2023-05-13T05:59:40.473Z,9.10
2023-05-13T06:02:07.901Z,9.20
2023-05-13T06:04:35.933Z,9.30
2023-05-13T06:07:03.059Z,9.40
2023-05-13T06:09:30.512Z,9.50
2023-05-13T06:11:57.503Z,9.50
2023-05-13T06:14:24.519Z,9.60
2023-05-13T06:16:53.032Z,9.60
2023-05-13T06:19:20.791Z,9.70
2023-05-13T06:21:48.718Z,9.70
2023-05-13T06:24:15.696Z,9.70
2023-05-13T06:26:42.763Z,9.70
2023-05-13T06:29:09.737Z,9.80
2023-05-13T06:31:37.421Z,9.90
2023-05-13T06:34:04.440Z,10.00
2023-05-13T06:36:33.301Z,10.10
2023-05-13T06:39:02.741Z,10.20
2023-05-13T06:41:30.495Z,10.30
2023-05-13T06:44:04.457Z,10.40
2023-05-13T06:46:31.526Z,10.40
2023-05-13T06:48:58.914Z,10.50
2023-05-13T06:51:27.600Z,10.40
2023-05-13T06:53:55.546Z,10.30
2023-05-13T06:56:26.033Z,10.30
2023-05-13T06:58:53.631Z,10.30
2023-05-13T07:01:20.755Z,10.30
2023-05-13T07:03:48.557Z,10.30
2023-05-13T07:06:15.741Z,10.30
2023-05-13T07:09:39.460Z,10.30
2023-05-13T07:12:06.847Z,10.30
2023-05-13T07:14:33.825Z,10.30
2023-05-13T07:17:51.345Z,10.30
2023-05-13T07:20:22.626Z,10.30
2023-05-13T07:22:50.754Z,10.30
2023-05-13T07:25:18.944Z,10.40
2023-05-13T07:27:46.123Z,10.40
2023-05-13T07:31:20.851Z,10.40
2023-05-13T07:33:47.932Z,10.30
2023-05-13T07:36:14.940Z,10.20
2023-05-13T07:38:41.966Z,10.20
2023-05-13T07:41:09.044Z,10.10
2023-05-13T07:43:36.143Z,10.10
2023-05-13T07:46:03.536Z,10.20
2023-05-13T07:48:31.711Z,10.20
2023-05-13T07:50:58.893Z,10.20
2023-05-13T07:53:26.254Z,10.30
2023-05-13T07:56:11.640Z,10.30
2023-05-13T07:58:38.637Z,10.40
2023-05-13T08:01:06.098Z,10.50
2023-05-13T08:03:33.440Z,10.60
2023-05-13T08:06:00.546Z,10.70
2023-05-13T08:08:27.644Z,10.90
2023-05-13T08:10:54.708Z,11.00
2023-05-13T08:13:21.994Z,11.00
2023-05-13T08:15:49.025Z,11.20
2023-05-13T08:18:16.176Z,11.40
2023-05-13T08:20:43.219Z,11.50
2023-05-13T08:23:10.415Z,11.60
2023-05-13T08:25:37.479Z,11.70
2023-05-13T08:28:04.620Z,11.90
2023-05-13T08:30:31.633Z,12.10
2023-05-13T08:32:58.718Z,12.10
2023-05-13T08:35:26.217Z,12.20
2023-05-13T08:37:53.215Z,12.30
2023-05-13T08:40:21.288Z,12.40
2023-05-13T08:42:53.331Z,12.50
2023-05-13T08:45:22.563Z,12.60
2023-05-13T08:47:58.033Z,12.70
2023-05-13T08:50:25.746Z,12.90
2023-05-13T08:52:56.518Z,13.10
2023-05-13T08:59:18.349Z,13.30
2023-05-13T09:01:45.946Z,13.40
2023-05-13T09:04:15.352Z,13.50
2023-05-13T09:06:42.412Z,13.50
2023-05-13T09:09:09.964Z,13.50
2023-05-13T09:11:50.678Z,13.50
2023-05-13T09:14:19.753Z,13.50
2023-05-13T09:16:48.188Z,13.40
2023-05-13T09:19:15.533Z,13.20
2023-05-13T09:21:44.624Z,13.00
2023-05-13T09:24:21.594Z,13.00
2023-05-13T09:31:13.575Z,13.00
2023-05-13T09:33:52.965Z,12.70
2023-05-13T09:36:20.472Z,12.60
2023-05-13T09:38:47.831Z,12.70
2023-05-13T09:41:19.996Z,12.80
2023-05-13T09:43:48.477Z,13.00
2023-05-13T09:46:15.912Z,13.20
2023-05-13T09:48:43.652Z,13.20
2023-05-13T09:51:10.686Z,13.10
2023-05-13T09:53:37.696Z,13.00
2023-05-13T09:56:05.377Z,12.90
2023-05-13T09:58:32.453Z,12.90
2023-05-13T10:00:59.917Z,12.90
2023-05-13T10:03:29.092Z,12.80
2023-05-13T10:05:59.914Z,12.60
2023-05-13T10:08:29.541Z,12.50
2023-05-13T10:10:57.007Z,12.40
2023-05-13T10:13:24.857Z,12.40
2023-05-13T10:15:53.948Z,12.40
2023-05-13T10:18:22.391Z,12.40
2023-05-13T10:20:55.703Z,12.40
2023-05-13T10:23:24.862Z,12.50
2023-05-13T10:26:05.378Z,12.60
2023-05-13T10:29:36.179Z,12.70
2023-05-13T10:32:04.693Z,12.90
2023-05-13T10:34:33.715Z,13.10
2023-05-13T10:37:12.503Z,13.00
2023-05-13T10:39:48.844Z,12.90
2023-05-13T10:42:34.462Z,12.80
2023-05-13T10:45:02.309Z,12.80
2023-05-13T10:47:33.027Z,12.90
2023-05-13T10:50:05.097Z,12.90
2023-05-13T10:52:47.971Z,12.90
2023-05-13T10:55:22.232Z,12.90
2023-05-13T10:58:09.258Z,12.90
2023-05-13T11:00:37.657Z,12.80
2023-05-13T11:03:20.149Z,12.90
2023-05-13T11:06:00.249Z,12.90
2023-05-13T11:08:40.779Z,12.90
2023-05-13T11:11:23.646Z,13.00
2023-05-13T11:14:26.756Z,13.10
2023-05-13T11:17:07.311Z,13.20
2023-05-13T11:19:39.787Z,13.20
2023-05-13T11:22:12.428Z,13.10
2023-05-13T11:24:40.727Z,12.90
2023-05-13T11:27:18.177Z,12.90
2023-05-13T11:29:53.392Z,12.90
2023-05-13T11:32:54.328Z,12.90
2023-05-13T11:35:26.508Z,12.80
2023-05-13T11:38:46.759Z,12.70
2023-05-13T11:41:14.686Z,12.60
2023-05-13T11:44:03.417Z,12.60
2023-05-13T11:46:30.612Z,12.70
2023-05-13T11:48:57.711Z,12.70
2023-05-13T11:51:29.235Z,12.60
2023-05-13T11:54:22.761Z,12.50
2023-05-13T11:56:49.757Z,12.60
2023-05-13T11:59:16.761Z,12.60
2023-05-13T12:02:14.847Z,12.60
2023-05-13T12:04:44.671Z,12.80
2023-05-13T12:07:12.358Z,13.10
2023-05-13T12:09:39.640Z,13.30
2023-05-13T12:12:07.248Z,13.40
2023-05-13T12:14:34.344Z,13.60
2023-05-13T12:17:02.024Z,13.80
2023-05-13T12:19:29.058Z,14.00
2023-05-13T12:21:56.217Z,14.30
2023-05-13T12:24:48.053Z,14.40
2023-05-13T12:32:03.791Z,14.70
2023-05-13T12:35:09.080Z,15.00
2023-05-13T12:37:36.278Z,15.20
2023-05-13T12:40:11.089Z,15.30
2023-05-13T12:42:38.251Z,15.30
2023-05-13T12:45:06.314Z,15.40
2023-05-13T12:47:51.155Z,15.40
2023-05-13T12:50:18.313Z,15.40
2023-05-13T12:52:45.468Z,15.40
2023-05-13T12:55:13.339Z,15.40
2023-05-13T12:57:44.816Z,15.50
2023-05-13T13:00:12.809Z,15.60
2023-05-13T13:02:41.329Z,15.70
2023-05-13T13:05:08.974Z,15.70
2023-05-13T13:07:38.116Z,15.90
2023-05-13T13:10:06.500Z,16.10
2023-05-13T13:12:33.551Z,16.30
2023-05-13T13:15:01.431Z,16.50
2023-05-13T13:17:28.487Z,16.50
2023-05-13T13:19:55.534Z,16.40
2023-05-13T13:22:22.485Z,16.40
2023-05-13T13:24:49.442Z,16.30
2023-05-13T13:27:16.466Z,16.30
2023-05-13T13:29:43.444Z,16.30
2023-05-13T13:32:10.760Z,16.20
2023-05-13T13:34:38.310Z,16.10
2023-05-13T13:37:05.603Z,16.00
2023-05-13T13:39:33.493Z,15.60
2023-05-13T13:42:00.479Z,15.40
2023-05-13T13:44:28.611Z,15.20
2023-05-13T13:46:55.700Z,15.10
2023-05-13T13:49:24.131Z,15.00
2023-05-13T13:51:54.157Z,14.90
2023-05-13T13:54:21.140Z,14.90
2023-05-13T13:57:16.708Z,14.90
2023-05-13T13:59:43.738Z,15.00
2023-05-13T14:02:10.753Z,15.00
2023-05-13T14:04:37.809Z,15.00
2023-05-13T14:07:04.972Z,15.10
2023-05-13T14:09:32.947Z,15.20
2023-05-13T14:12:00.009Z,15.20
2023-05-13T14:14:27.100Z,15.30
2023-05-13T14:16:54.212Z,15.40
2023-05-13T14:19:21.191Z,15.50
2023-05-13T14:26:07.494Z,15.50
2023-05-13T14:28:34.643Z,15.50
2023-05-13T14:31:01.802Z,15.40
2023-05-13T14:33:59.859Z,15.30
2023-05-13T14:36:27.033Z,15.30
2023-05-13T14:38:54.575Z,15.30
2023-05-13T14:41:22.766Z,15.40
2023-05-13T14:43:49.911Z,15.40
2023-05-13T14:46:17.508Z,15.40
2023-05-13T14:48:44.672Z,15.50
2023-05-13T14:51:12.522Z,15.60
2023-05-13T14:53:42.933Z,15.70
2023-05-13T14:56:10.084Z,15.80
2023-05-13T14:58:37.177Z,15.90
2023-05-13T15:01:04.537Z,16.00
2023-05-13T15:03:31.611Z,16.00
2023-05-13T15:05:58.768Z,16.20
2023-05-13T15:08:25.939Z,16.20
2023-05-13T15:10:52.943Z,16.20
2023-05-13T15:13:20.074Z,16.20
2023-05-13T15:15:47.317Z,16.10
2023-05-13T15:18:14.769Z,16.00
2023-05-13T15:20:41.940Z,16.00
2023-05-13T15:23:09.028Z,15.80
2023-05-13T15:25:36.519Z,15.60
2023-05-13T15:28:03.656Z,15.50
2023-05-13T15:30:30.780Z,15.50
2023-05-13T15:32:57.956Z,15.40
2023-05-13T15:35:25.051Z,15.40
2023-05-13T15:37:52.175Z,15.40
2023-05-13T15:40:20.442Z,15.50
2023-05-13T15:42:48.445Z,15.60
2023-05-13T15:45:29.591Z,15.70
2023-05-13T15:47:56.766Z,15.80
2023-05-13T15:50:24.350Z,15.80
2023-05-13T15:52:51.638Z,15.80
2023-05-13T15:55:18.747Z,15.80
2023-05-13T15:57:46.494Z,15.70
2023-05-13T16:00:15.502Z,15.70
2023-05-13T16:02:44.241Z,15.70
2023-05-13T16:05:15.768Z,15.60
2023-05-13T16:07:42.931Z,15.60
2023-05-13T16:10:10.418Z,15.60
2023-05-13T16:12:37.925Z,15.70
2023-05-13T16:15:05.312Z,15.70
2023-05-13T16:17:33.079Z,15.80
2023-05-13T16:20:00.438Z,15.80
2023-05-13T16:22:34.128Z,15.90
2023-05-13T16:25:03.918Z,15.90
2023-05-13T16:27:31.708Z,15.90
2023-05-13T16:30:00.215Z,15.90
2023-05-13T16:32:28.298Z,15.90
2023-05-13T16:34:55.812Z,16.00
2023-05-13T16:40:36.120Z,15.90
2023-05-13T16:43:04.173Z,15.90
2023-05-13T16:45:31.498Z,16.00
2023-05-13T16:47:58.696Z,15.90
2023-05-13T16:50:26.374Z,16.00
2023-05-13T16:52:54.813Z,16.10
2023-05-13T16:55:22.883Z,15.90
2023-05-13T16:57:50.150Z,15.80
2023-05-13T17:00:17.555Z,15.80
2023-05-13T17:02:44.739Z,15.80
2023-05-13T17:05:11.881Z,15.90
2023-05-13T17:07:39.582Z,15.90
2023-05-13T17:10:07.328Z,15.90
2023-05-13T17:12:34.358Z,15.90
2023-05-13T17:15:01.517Z,16.00
2023-05-13T17:17:28.517Z,15.90
2023-05-13T17:19:55.704Z,15.80
2023-05-13T17:22:22.711Z,15.70
2023-05-13T17:24:49.778Z,15.50
2023-05-13T17:27:16.773Z,15.30
2023-05-13T17:29:43.875Z,15.10
2023-05-13T17:32:11.548Z,14.80
2023-05-13T17:34:38.654Z,14.60
2023-05-13T17:37:06.199Z,14.50
2023-05-13T17:39:33.166Z,14.30
2023-05-13T17:42:00.242Z,14.20
2023-05-13T17:44:27.214Z,14.00
2023-05-13T17:46:55.380Z,13.90
2023-05-13T17:49:22.389Z,14.00
2023-05-13T17:51:49.595Z,14.00
2023-05-13T17:54:16.741Z,14.00
2023-05-13T17:56:46.556Z,14.00
2023-05-13T17:59:14.051Z,14.00
2023-05-13T18:01:41.583Z,14.00
2023-05-13T18:04:09.051Z,13.90
2023-05-13T18:06:36.352Z,14.00
2023-05-13T18:09:03.664Z,14.00
2023-05-13T18:11:30.963Z,14.00
2023-05-13T18:14:00.261Z,14.00
2023-05-13T18:16:27.834Z,13.90
2023-05-13T18:18:55.059Z,13.80
2023-05-13T18:21:32.820Z,13.80
2023-05-13T18:24:00.379Z,13.60
2023-05-13T18:27:00.487Z,13.40
2023-05-13T18:29:28.019Z,13.30
2023-05-13T18:31:55.082Z,13.30
2023-05-13T18:34:22.302Z,13.20
2023-05-13T18:36:52.107Z,13.20
2023-05-13T18:39:25.590Z,13.10
2023-05-13T18:41:52.566Z,13.10
2023-05-13T18:44:19.704Z,13.10
2023-05-13T18:46:47.139Z,13.00
2023-05-13T18:49:14.153Z,13.00
2023-05-13T18:51:41.408Z,13.00
2023-05-13T18:54:08.637Z,13.00
2023-05-13T18:56:38.577Z,13.10
2023-05-13T18:59:06.099Z,13.20
2023-05-13T19:01:33.391Z,13.30
2023-05-13T19:04:00.801Z,13.30
2023-05-13T19:06:28.551Z,13.40
2023-05-13T19:08:55.539Z,13.40
2023-05-13T19:11:22.808Z,13.40
2023-05-13T19:13:50.126Z,13.30
2023-05-13T19:16:18.472Z,13.30
2023-05-13T19:18:45.716Z,13.30
2023-05-13T19:21:13.366Z,13.30
2023-05-13T19:23:41.712Z,13.30
2023-05-13T19:26:09.250Z,13.30
2023-05-13T19:28:38.135Z,13.20
2023-05-13T19:31:06.082Z,13.10
2023-05-13T19:33:33.204Z,13.00
2023-05-13T19:36:00.375Z,12.90
2023-05-13T19:38:27.431Z,12.90
2023-05-13T19:40:54.940Z,12.80
2023-05-13T19:43:21.975Z,12.70
2023-05-13T19:45:48.969Z,12.80
2023-05-13T19:48:16.009Z,12.70
2023-05-13T19:50:43.071Z,12.70
2023-05-13T19:53:10.203Z,12.60
2023-05-13T19:55:37.254Z,12.50
2023-05-13T19:58:04.330Z,12.40
2023-05-13T20:00:31.361Z,12.30
2023-05-13T20:02:58.537Z,12.20
2023-05-13T20:05:25.652Z,12.10
2023-05-13T20:07:52.730Z,12.20
2023-05-13T20:10:19.799Z,12.10
2023-05-13T20:12:46.898Z,12.00
2023-05-13T20:15:13.957Z,11.90
2023-05-13T20:17:41.195Z,11.80
2023-05-13T20:20:08.873Z,11.80
2023-05-13T20:22:36.038Z,11.90
2023-05-13T20:25:03.439Z,12.00
2023-05-13T20:27:30.451Z,12.10
2023-05-13T20:29:57.598Z,12.30
2023-05-13T20:32:25.095Z,12.30
2023-05-13T20:34:52.881Z,12.40
2023-05-13T20:37:24.207Z,12.40
2023-05-13T20:39:52.312Z,12.40
2023-05-13T20:42:29.640Z,12.40
2023-05-13T20:44:56.783Z,12.50
2023-05-13T20:47:24.066Z,12.50
2023-05-13T20:49:51.499Z,12.50
2023-05-13T20:52:18.930Z,12.50
2023-05-13T20:54:45.940Z,12.50
2023-05-13T20:57:25.686Z,12.50
2023-05-13T20:59:52.876Z,12.40
2023-05-13T21:02:19.885Z,12.30
2023-05-13T21:04:46.919Z,12.20
2023-05-13T21:07:23.266Z,12.20
2023-05-13T21:09:50.262Z,12.10
2023-05-13T21:12:17.325Z,11.90
2023-05-13T21:14:44.339Z,11.90
2023-05-13T21:17:11.809Z,11.80
2023-05-13T21:19:38.863Z,11.70
2023-05-13T21:22:06.057Z,11.60
2023-05-13T21:24:33.144Z,11.50
2023-05-13T21:27:00.174Z,11.50
2023-05-13T21:29:27.233Z,11.40
2023-05-13T21:31:54.995Z,11.30
2023-05-13T21:34:22.297Z,11.20
2023-05-13T21:36:49.384Z,11.20
2023-05-13T21:39:16.516Z,11.20
2023-05-13T21:41:45.419Z,11.30
2023-05-13T21:44:12.477Z,11.20
2023-05-13T21:46:45.747Z,11.20
2023-05-13T21:49:13.062Z,11.30
2023-05-13T21:51:40.337Z,11.30
2023-05-13T21:54:07.348Z,11.30
2023-05-13T21:56:34.365Z,11.20
2023-05-13T21:59:01.414Z,11.10
2023-05-13T22:01:28.598Z,11.00
2023-05-13T22:03:55.774Z,11.00
2023-05-13T22:06:22.806Z,10.80
2023-05-13T22:08:49.846Z,10.80
2023-05-13T22:11:16.907Z,10.80
2023-05-13T22:13:43.960Z,10.70
2023-05-13T22:16:11.136Z,10.60
2023-05-13T22:18:39.649Z,10.50
2023-05-13T22:21:06.916Z,10.60
2023-05-13T22:23:34.127Z,10.60
2023-05-13T22:26:01.200Z,10.60
2023-05-13T22:28:28.173Z,10.70
2023-05-13T22:30:56.967Z,10.70
2023-05-13T22:33:23.979Z,10.70
2023-05-13T22:35:51.208Z,10.70
2023-05-13T22:38:18.368Z,10.70
2023-05-13T22:40:45.368Z,10.70
2023-05-13T22:43:12.350Z,10.70
2023-05-13T22:45:39.359Z,10.70
2023-05-13T22:48:06.676Z,10.80
2023-05-13T22:50:33.739Z,10.80
2023-05-13T22:53:00.711Z,10.80
2023-05-13T22:55:27.700Z,10.90
2023-05-13T22:57:54.975Z,11.00
2023-05-13T23:00:22.275Z,11.10
2023-05-13T23:02:49.579Z,11.20
2023-05-13T23:05:16.592Z,11.20
2023-05-13T23:07:43.552Z,11.30
2023-05-13T23:10:10.874Z,11.30
2023-05-13T23:12:37.952Z,11.40
2023-05-13T23:15:07.099Z,11.40
2023-05-13T23:17:34.239Z,11.40
2023-05-13T23:20:01.388Z,11.40
2023-05-13T23:22:28.434Z,11.40
2023-05-13T23:24:55.663Z,11.40
2023-05-13T23:27:22.782Z,11.50
2023-05-13T23:29:49.848Z,11.40
2023-05-13T23:32:16.850Z,11.50
2023-05-13T23:34:43.860Z,11.50
2023-05-13T23:37:11.554Z,11.40
2023-05-13T23:39:38.617Z,11.40
2023-05-13T23:42:05.744Z,11.40
2023-05-13T23:44:32.803Z,11.30
2023-05-13T23:46:59.890Z,11.30
2023-05-13T23:49:26.988Z,11.20
2023-05-13T23:51:53.950Z,11.00
2023-05-13T23:54:20.989Z,10.90
2023-05-13T23:56:48.060Z,10.80
2023-05-13T23:59:15.083Z,10.70
